^^
Station Historical Data
Daily Summary for January 28, 2017 Units:  English    Metric   Both
« Previous Day
Next Day »
Daily Weekly Monthly Yearly Custom
  High: Low: Average:
Temperature: 36.0 °F 32.6 °F 34.2 °F
Dew Point: 25.2 °F 21.7 °F 23 °F
Humidity: 68% 57% 63%
Wind Speed: 10.0mph 0.0mph 3.1mph
Wind Gust: 15.0mph - -
Wind- - SW
Pressure: 29.76 in 29.62 in -
Precipitation: 0.00 in    
Historical Graphs
 
 
Tabular Data for January 28, 2017
Time Temperature Dew Point Pressure Wind Wind Speed Wind Gust Humidity Rainfall Rate (Hourly) Conditions
00:00 35.1 °F 24.1 °F 29.63 in SW 3.0 mph 10.0 mph 64% 0.00 in SCT
00:10 34.9 °F 24.3 °F 29.63 in SW 5.0 mph 8.0 mph 65% 0.00 in BKN
00:20 34.9 °F 23.6 °F 29.63 in SW 7.0 mph 13.0 mph 63% 0.00 in BKN
00:30 34.9 °F 23.6 °F 29.63 in SSW 2.0 mph 14.0 mph 63% 0.00 in BKN
00:40 34.9 °F 23.5 °F 29.63 in WSW 5.0 mph 11.0 mph 63% 0.00 in BKN
00:50 34.8 °F 23.5 °F 29.63 in WSW 3.0 mph 12.0 mph 63% 0.00 in BKN
01:00 34.7 °F 23.4 °F 29.63 in WSW 5.0 mph 10.0 mph 63% 0.00 in BKN
01:10 34.7 °F 23.4 °F 29.62 in WSW 7.0 mph 12.0 mph 63% 0.00 in BKN
01:20 34.7 °F 23.4 °F 29.62 in SW 2.0 mph 13.0 mph 63% 0.00 in BKN
01:30 34.6 °F 23.3 °F 29.63 in WSW 3.0 mph 12.0 mph 63% 0.00 in BKN
01:40 34.6 °F 23.3 °F 29.63 in SW 3.0 mph 10.0 mph 63% 0.00 in BKN
01:50 34.5 °F 23.6 °F 29.63 in WSW 2.0 mph 9.0 mph 64% 0.00 in BKN
02:00 34.6 °F 23.3 °F 29.63 in SW 6.0 mph 12.0 mph 63% 0.00 in BKN
02:10 34.6 °F 23.3 °F 29.63 in SW 5.0 mph 13.0 mph 63% 0.00 in BKN
02:20 34.6 °F 23.3 °F 29.63 in SW 5.0 mph 12.0 mph 63% 0.00 in BKN
02:30 34.6 °F 23.6 °F 29.63 in SW 6.0 mph 10.0 mph 64% 0.00 in BKN
02:40 34.5 °F 23.6 °F 29.63 in SW 3.0 mph 10.0 mph 64% 0.00 in BKN
02:50 34.5 °F 23.2 °F 29.63 in SW 6.0 mph 12.0 mph 63% 0.00 in BKN
03:00 34.5 °F 23.2 °F 29.63 in WSW 1.0 mph 12.0 mph 63% 0.00 in BKN
03:10 34.5 °F 23.2 °F 29.63 in SW 3.0 mph 10.0 mph 63% 0.00 in BKN
03:20 34.4 °F 23.1 °F 29.63 in South 5.0 mph 12.0 mph 63% 0.00 in BKN
03:30 34.3 °F 23.4 °F 29.63 in SSW 3.0 mph 10.0 mph 64% 0.00 in BKN
03:40 34.2 °F 23.3 °F 29.63 in WSW 3.0 mph 8.0 mph 64% 0.00 in BKN
03:50 34.1 °F 23.2 °F 29.63 in SW 2.0 mph 12.0 mph 64% 0.00 in BKN
04:00 34.0 °F 22.7 °F 29.63 in SSW 8.0 mph 13.0 mph 63% 0.00 in BKN
04:10 33.9 °F 23.0 °F 29.63 in SW 3.0 mph 12.0 mph 64% 0.00 in BKN
04:20 33.7 °F 22.4 °F 29.63 in SW 5.0 mph 10.0 mph 63% 0.00 in BKN
04:30 33.6 °F 22.3 °F 29.64 in SW 5.0 mph 12.0 mph 63% 0.00 in BKN
04:40 33.5 °F 22.2 °F 29.63 in SW 5.0 mph 12.0 mph 63% 0.00 in BKN
04:50 33.3 °F 22.4 °F 29.64 in SW 3.0 mph 12.0 mph 64% 0.00 in BKN
05:00 33.2 °F 22.0 °F 29.63 in SW 7.0 mph 12.0 mph 63% 0.00 in BKN
05:10 33.1 °F 22.2 °F 29.63 in SW 2.0 mph 15.0 mph 64% 0.00 in OVC
05:20 32.9 °F 22.4 °F 29.63 in SW 1.0 mph 10.0 mph 65% 0.00 in OVC
05:30 32.9 °F 22.4 °F 29.63 in SSW 5.0 mph 15.0 mph 65% 0.00 in OVC
05:40 32.8 °F 22.3 °F 29.63 in SW 5.0 mph 14.0 mph 65% 0.00 in OVC
05:50 32.7 °F 22.2 °F 29.64 in WSW 5.0 mph 14.0 mph 65% 0.00 in OVC
06:00 32.7 °F 22.6 °F 29.64 in SW 2.0 mph 10.0 mph 66% 0.00 in OVC
06:10 32.6 °F 22.5 °F 29.65 in SW 2.0 mph 9.0 mph 66% 0.00 in BKN
06:20 32.7 °F 22.2 °F 29.65 in SW 3.0 mph 12.0 mph 65% 0.00 in BKN
06:30 32.9 °F 22.4 °F 29.65 in WSW 3.0 mph 10.0 mph 65% 0.00 in BKN
06:40 33.2 °F 22.7 °F 29.66 in SW 3.0 mph 10.0 mph 65% 0.00 in BKN
07:00 33.3 °F 22.8 °F 29.66 in SW 5.0 mph 15.0 mph 65% 0.00 in BKN
07:10 33.3 °F 22.8 °F 29.66 in WSW 3.0 mph 13.0 mph 65% 0.00 in OVC
07:20 33.1 °F 22.6 °F 29.67 in SW 3.0 mph 10.0 mph 65% 0.00 in OVC
07:40 33.1 °F 22.7 °F 29.67 in WSW 5.0 mph 13.0 mph 65% 0.00 in OVC
07:50 33.2 °F 22.3 °F 29.67 in SW 3.0 mph 13.0 mph 64% 0.00 in OVC
08:00 33.2 °F 22.4 °F 29.67 in SW 3.0 mph 13.0 mph 64% 0.00 in OVC
08:20 33.2 °F 22.3 °F 29.68 in SW 5.0 mph 13.0 mph 64% 0.00 in BKN
08:30 33.3 °F 22.8 °F 29.68 in SW 6.0 mph 14.0 mph 65% 0.00 in BKN
08:50 33.6 °F 22.7 °F 29.69 in WSW 6.0 mph 13.0 mph 64% 0.00 in BKN
09:10 34.1 °F 22.4 °F 29.69 in WSW 5.0 mph 15.0 mph 62% 0.00 in BKN
09:20 34.3 °F 22.6 °F 29.69 in SSW 2.0 mph 12.0 mph 62% 0.00 in BKN
09:30 34.3 °F 22.7 °F 29.70 in SW 2.0 mph 12.0 mph 62% 0.00 in BKN
09:40 34.7 °F 22.6 °F 29.70 in WSW 5.0 mph 10.0 mph 61% 0.00 in BKN
09:50 34.7 °F 22.6 °F 29.70 in SW 6.0 mph 12.0 mph 61% 0.00 in BKN
10:00 34.8 °F 22.8 °F 29.70 in WSW 2.0 mph 10.0 mph 61% 0.00 in BKN
10:10 34.9 °F 22.4 °F 29.70 in WSW 7.0 mph 14.0 mph 60% 0.00 in BKN
10:20 35.1 °F 22.6 °F 29.71 in WSW 3.0 mph 12.0 mph 60% 0.00 in BKN
10:30 35.2 °F 22.7 °F 29.71 in WSW 3.0 mph 15.0 mph 60% 0.00 in BKN
10:50 35.7 °F 22.4 °F 29.71 in SSW 2.0 mph 14.0 mph 58% 0.00 in BKN
11:00 35.9 °F 23.0 °F 29.71 in SW 5.0 mph 12.0 mph 59% 0.00 in BKN
11:10 36.0 °F 23.0 °F 29.70 in West 3.0 mph 14.0 mph 59% 0.00 in BKN
11:20 35.9 °F 22.5 °F 29.70 in SW 7.0 mph 15.0 mph 58% 0.00 in BKN
11:40 35.6 °F 21.9 °F 29.69 in WSW 3.0 mph 15.0 mph 57% 0.00 in BKN
11:50 35.7 °F 22.4 °F 29.69 in WSW 6.0 mph 12.0 mph 58% 0.00 in BKN
12:00 35.9 °F 22.1 °F 29.68 in WNW 6.0 mph 14.0 mph 57% 0.00 in BKN
12:10 36.0 °F 23.5 °F 29.68 in WSW 2.0 mph 12.0 mph 60% 0.00 in BKN
12:20 35.8 °F 22.5 °F 29.68 in SW 5.0 mph 14.0 mph 58% 0.00 in BKN
12:40 34.8 °F 24.2 °F 29.68 in SW 3.0 mph 14.0 mph 65% 0.00 in BKN
12:50 34.6 °F 24.8 °F 29.68 in WSW 3.0 mph 11.0 mph 67% 0.00 in BKN
13:00 34.6 °F 25.2 °F 29.67 in WSW 1.0 mph 9.0 mph 68% 0.00 in BKN
13:10 34.7 °F 24.9 °F 29.67 in SW 2.0 mph 8.0 mph 67% 0.00 in BKN
13:20 34.6 °F 24.1 °F 29.67 in WSW 5.0 mph 11.0 mph 65% 0.00 in BKN
13:30 34.3 °F 24.1 °F 29.67 in WSW 5.0 mph 12.0 mph 66% 0.00 in BKN
13:40 34.2 °F 24.7 °F 29.67 in SW 2.0 mph 10.0 mph 68% 0.00 in BKN
13:50 34.2 °F 24.7 °F 29.67 in SW 2.0 mph 10.0 mph 68% 0.00 in BKN
14:00 34.4 °F 25.0 °F 29.67 in WSW 3.0 mph 9.0 mph 68% 0.00 in BKN
14:10 34.6 °F 24.8 °F 29.67 in Calm   6.0 mph 67% 0.00 in -SN
14:20 34.8 °F 24.9 °F 29.67 in WSW 1.0 mph 9.0 mph 67% 0.00 in -SN
14:30 35.0 °F 23.7 °F 29.67 in West 5.0 mph 11.0 mph 63% 0.00 in -SN
14:40 35.3 °F 22.4 °F 29.67 in WSW 3.0 mph 13.0 mph 59% 0.00 in -SN
14:50 35.4 °F 22.5 °F 29.68 in WSW 5.0 mph 12.0 mph 59% 0.00 in -SN
15:00 35.3 °F 21.9 °F 29.68 in WSW 10.0 mph 15.0 mph 58% 0.00 in -SN
15:10 35.3 °F 22.4 °F 29.68 in SW 1.0 mph 12.0 mph 59% 0.00 in BKN
15:20 35.3 °F 22.4 °F 29.68 in West 2.0 mph 12.0 mph 59% 0.00 in BKN
15:30 35.3 °F 22.4 °F 29.68 in SW 5.0 mph 12.0 mph 59% 0.00 in BKN
15:40 35.2 °F 22.3 °F 29.69 in West 3.0 mph 14.0 mph 59% 0.00 in BKN
16:20 34.9 °F 22.0 °F 29.69 in WSW 2.0 mph 14.0 mph 59% 0.00 in BKN
16:40 34.7 °F 22.2 °F 29.70 in SW 2.0 mph 12.0 mph 60% 0.00 in BKN
17:00 34.6 °F 22.5 °F 29.70 in West 2.0 mph 12.0 mph 61% 0.00 in BKN
17:20 34.4 °F 22.7 °F 29.71 in WSW 2.0 mph 12.0 mph 62% 0.00 in OVC
17:30 34.3 °F 22.6 °F 29.71 in SW 2.0 mph 10.0 mph 62% 0.00 in OVC
17:40 34.2 °F 21.7 °F 29.71 in SSW 3.0 mph 10.0 mph 60% 0.00 in OVC
17:50 33.9 °F 21.9 °F 29.71 in WSW 3.0 mph 8.0 mph 61% 0.00 in OVC
18:00 33.6 °F 22.0 °F 29.71 in WSW 2.0 mph 8.0 mph 62% 0.00 in OVC
18:10 33.5 °F 21.9 °F 29.72 in WSW 1.0 mph 7.0 mph 62% 0.00 in BKN
18:20 33.5 °F 21.9 °F 29.72 in SW 5.0 mph 9.0 mph 62% 0.00 in BKN
18:30 33.7 °F 21.7 °F 29.73 in WSW 1.0 mph 10.0 mph 61% 0.00 in BKN
18:40 33.9 °F 21.9 °F 29.73 in SW 3.0 mph 14.0 mph 61% 0.00 in BKN
18:50 34.0 °F 21.9 °F 29.73 in SW 1.0 mph 9.0 mph 61% 0.00 in BKN
19:00 33.9 °F 22.2 °F 29.74 in SW 2.0 mph 10.0 mph 62% 0.00 in BKN
19:10 33.7 °F 22.4 °F 29.74 in SSW 2.0 mph 8.0 mph 63% 0.00 in BKN
19:20 33.6 °F 22.7 °F 29.74 in WSW 1.0 mph 6.0 mph 64% 0.00 in BKN
19:30 33.6 °F 22.7 °F 29.75 in SW 1.0 mph 5.0 mph 64% 0.00 in BKN
19:40 33.7 °F 22.8 °F 29.76 in SW 1.0 mph 6.0 mph 64% 0.00 in BKN
19:50 33.8 °F 22.9 °F 29.75 in SW 2.0 mph 8.0 mph 64% 0.00 in BKN
20:00 33.8 °F 22.9 °F 29.75 in SW 1.0 mph 6.0 mph 64% 0.00 in BKN
20:10 33.9 °F 23.4 °F 29.76 in SW 1.0 mph 7.0 mph 65% 0.00 in BKN
20:20 33.9 °F 23.4 °F 29.76 in SW 3.0 mph 10.0 mph 65% 0.00 in BKN
20:30 34.1 °F 23.6 °F 29.76 in SW 3.0 mph 9.0 mph 65% 0.00 in BKN
20:40 34.0 °F 23.5 °F 29.76 in SW 1.0 mph 5.0 mph 65% 0.00 in BKN
20:50 33.8 °F 23.7 °F 29.76 in WSW 1.0 mph 6.0 mph 66% 0.00 in BKN
21:00 33.9 °F 23.7 °F 29.76 in SW 3.0 mph 7.0 mph 66% 0.00 in BKN
21:10 33.8 °F 23.6 °F 29.76 in West 2.0 mph 8.0 mph 66% 0.00 in BKN
21:20 33.8 °F 23.3 °F 29.76 in SW 2.0 mph 8.0 mph 65% 0.00 in BKN
21:30 33.8 °F 23.6 °F 29.76 in SW 2.0 mph 7.0 mph 66% 0.00 in BKN
21:40 33.7 °F 23.5 °F 29.76 in SSW 1.0 mph 8.0 mph 66% 0.00 in BKN
21:50 33.5 °F 23.4 °F 29.76 in SW 1.0 mph 5.0 mph 66% 0.00 in BKN
22:10 33.5 °F 23.4 °F 29.76 in Calm   3.0 mph 66% 0.00 in BKN
22:20 33.6 °F 23.4 °F 29.75 in Calm   3.0 mph 66% 0.00 in BKN
22:30 33.5 °F 23.4 °F 29.75 in Calm   1.0 mph 66% 0.00 in BKN
22:40 33.4 °F 23.6 °F 29.75 in Calm   2.0 mph 67% 0.00 in BKN
22:50 33.3 °F 23.5 °F 29.75 in Calm   3.0 mph 67% 0.00 in BKN
23:00 33.3 °F 23.5 °F 29.75 in Calm   3.0 mph 67% 0.00 in BKN
23:10 33.3 °F 23.9 °F 29.74 in SW 1.0 mph 3.0 mph 68% 0.00 in BKN
23:20 33.3 °F 23.8 °F 29.75 in SSW 1.0 mph 3.0 mph 68% 0.00 in BKN
23:30 33.3 °F 23.9 °F 29.75 in SSW 1.0 mph 3.0 mph 68% 0.00 in BKN
23:40 33.4 °F 24.0 °F 29.75 in SSW 1.0 mph 7.0 mph 68% 0.00 in BKN
23:50 33.5 °F 24.1 °F 29.74 in SW 1.0 mph 6.0 mph 68% 0.00 in BKN
TarryTown NY Weather
Compliments of Weather Underground - 1.75 mb